CYZU

Whitecourt Airport

Whitecourt, Alberta, Canada
METAR CYZU 222100Z 30018G25KT 15SM BKN056 07/M06 A3018 RMK SC6 SLP245
Observed Flight Rules
Apr-22 @ 21:00 UTC (55 minutes ago) Visual Flight Rules
Wind Visibility Clouds
300° at 18 knots
 Gusting to 25 knots
15 miles
  • Broken at 5,600' AGL
Temperatures Readings
Current 7°C / 45°F
Dewpoint -6°C / 21°F
Humidity 39%
Altimeter 30.18" Hg
Pressure 1024.5 hPa
Elevation 785
METAR CYZU 222100Z 30018G25KT 15SM BKN056 07/M06 A3018 RMK SC6 SLP245
Observed Flight Rules
Apr-22 @ 21:00 UTC
(55 minutes ago)
VFR
Wind Visibility
300° at 18 knots
 Gusting to 25 knots
15 miles
Clouds
  • Broken at 5,600' AGL
Temperature Dewpoint
7°C / 45°F -6°C / 21°F
Humidity Altimeter Pressure
39% 30.18" Hg 1024.5 hPa